createdAt,value
2022-07-26T00:00:09.980Z,11.25
2022-07-26T00:02:36.677Z,10.30
2022-07-26T00:05:03.515Z,10.20
2022-07-26T00:07:36.376Z,11.70
2022-07-26T00:10:05.787Z,9.40
2022-07-26T00:12:33.689Z,13.20
2022-07-26T00:15:00.417Z,11.77
2022-07-26T00:17:27.223Z,11.25
2022-07-26T00:19:53.671Z,10.52
2022-07-26T00:22:35.395Z,8.98
2022-07-26T00:25:04.870Z,12.30
2022-07-26T00:27:32.297Z,10.15
2022-07-26T00:29:58.790Z,10.45
2022-07-26T00:32:25.363Z,12.65
2022-07-26T00:34:52.497Z,9.55
2022-07-26T00:37:20.807Z,8.93
2022-07-26T00:39:47.811Z,9.77
2022-07-26T00:42:14.587Z,8.77
2022-07-26T00:44:42.405Z,9.82
2022-07-26T00:47:09.726Z,10.15
2022-07-26T00:49:36.256Z,9.85
2022-07-26T00:52:05.472Z,8.75
2022-07-26T00:54:32.001Z,9.98
2022-07-26T00:56:58.579Z,8.30
2022-07-26T00:59:25.107Z,10.52
2022-07-26T01:01:51.651Z,8.13
2022-07-26T01:04:18.119Z,11.85
2022-07-26T01:06:44.786Z,7.85
2022-07-26T01:09:11.733Z,8.95
2022-07-26T01:11:38.172Z,8.85
2022-07-26T01:14:04.858Z,9.55
2022-07-26T01:16:31.664Z,8.57
2022-07-26T01:18:58.142Z,7.10
2022-07-26T01:21:32.503Z,9.18
2022-07-26T01:23:59.144Z,8.05
2022-07-26T01:26:25.658Z,9.93
2022-07-26T01:28:52.560Z,8.15
2022-07-26T01:31:19.171Z,6.60
2022-07-26T01:33:46.212Z,7.22
2022-07-26T01:36:13.085Z,7.93
2022-07-26T01:38:41.264Z,7.03
2022-07-26T01:41:07.841Z,9.00
2022-07-26T01:43:34.507Z,8.18
2022-07-26T01:46:01.064Z,8.48
2022-07-26T01:48:27.864Z,7.32
2022-07-26T01:50:54.352Z,7.38
2022-07-26T01:53:20.980Z,6.82
2022-07-26T01:55:47.423Z,7.45
2022-07-26T01:58:14.255Z,6.00
2022-07-26T02:00:40.771Z,6.15
2022-07-26T02:03:07.445Z,7.85
2022-07-26T02:05:34.072Z,8.55
2022-07-26T02:08:00.632Z,6.60
2022-07-26T02:10:50.386Z,6.97
2022-07-26T02:13:17.060Z,6.88
2022-07-26T02:15:43.801Z,8.05
2022-07-26T02:18:10.525Z,7.60
2022-07-26T02:20:36.936Z,7.22
2022-07-26T02:23:04.973Z,5.82
2022-07-26T02:25:31.696Z,5.93
2022-07-26T02:27:58.132Z,6.93
2022-07-26T02:30:24.816Z,8.73
2022-07-26T02:32:51.242Z,8.07
2022-07-26T02:35:17.763Z,5.80
2022-07-26T02:37:44.274Z,6.53
2022-07-26T02:40:16.880Z,7.05
2022-07-26T02:42:45.379Z,7.07
2022-07-26T02:45:11.816Z,7.70
2022-07-26T02:47:52.126Z,6.15
2022-07-26T02:50:20.097Z,6.38
2022-07-26T02:52:48.329Z,8.27
2022-07-26T02:55:16.340Z,8.45
2022-07-26T02:57:46.498Z,5.57
2022-07-26T03:00:15.722Z,5.65
2022-07-26T03:02:42.380Z,10.43
2022-07-26T03:05:09.406Z,6.75
2022-07-26T03:07:36.381Z,5.57
2022-07-26T03:10:03.930Z,6.72
2022-07-26T03:12:30.584Z,7.28
2022-07-26T03:14:57.077Z,5.70
2022-07-26T03:17:23.567Z,5.75
2022-07-26T03:19:50.164Z,5.78
2022-07-26T03:22:16.719Z,7.88
2022-07-26T03:24:43.173Z,7.18
2022-07-26T03:27:09.753Z,7.22
2022-07-26T03:29:36.226Z,7.25
2022-07-26T03:32:02.685Z,6.05
2022-07-26T03:34:29.129Z,7.07
2022-07-26T03:36:55.556Z,6.32
2022-07-26T03:39:22.013Z,7.70
2022-07-26T03:41:48.448Z,6.53
2022-07-26T03:44:14.866Z,5.82
2022-07-26T03:46:41.307Z,7.38
2022-07-26T03:49:08.710Z,7.43
2022-07-26T03:51:37.460Z,6.43
2022-07-26T03:54:04.014Z,6.95
2022-07-26T03:56:33.011Z,6.97
2022-07-26T03:59:10.451Z,7.05
2022-07-26T04:01:41.931Z,7.18
2022-07-26T04:04:09.773Z,6.70
2022-07-26T04:06:37.079Z,6.43
2022-07-26T04:09:05.411Z,6.82
2022-07-26T04:11:33.430Z,5.93
2022-07-26T04:14:00.438Z,6.78
2022-07-26T04:16:27.454Z,6.53
2022-07-26T04:18:54.549Z,7.43
2022-07-26T04:21:21.326Z,6.90
2022-07-26T04:23:51.281Z,6.68
2022-07-26T04:26:19.792Z,6.90
2022-07-26T04:28:46.275Z,8.23
2022-07-26T04:31:12.901Z,10.10
2022-07-26T04:33:39.412Z,6.93
2022-07-26T04:36:06.158Z,9.55
2022-07-26T04:38:32.620Z,6.53
2022-07-26T04:40:59.160Z,6.35
2022-07-26T04:43:25.844Z,8.35
2022-07-26T04:45:52.647Z,6.00
2022-07-26T04:48:19.321Z,6.63
2022-07-26T04:50:45.992Z,8.68
2022-07-26T04:53:12.467Z,8.80
2022-07-26T04:55:39.636Z,6.38
2022-07-26T04:58:06.138Z,10.02
2022-07-26T05:00:34.417Z,6.80
2022-07-26T05:03:05.871Z,9.77
2022-07-26T05:05:33.187Z,6.20
2022-07-26T05:08:03.661Z,8.45
2022-07-26T05:10:35.560Z,6.82
2022-07-26T05:13:04.117Z,7.85
2022-07-26T05:15:34.985Z,6.93
2022-07-26T05:18:08.868Z,8.18
2022-07-26T05:20:37.991Z,9.05
2022-07-26T05:23:04.678Z,7.93
2022-07-26T05:25:31.180Z,8.65
2022-07-26T05:27:57.685Z,7.25
2022-07-26T05:30:24.242Z,8.60
2022-07-26T05:32:50.763Z,8.93
2022-07-26T05:35:17.912Z,9.57
2022-07-26T05:37:44.368Z,8.68
2022-07-26T05:40:11.713Z,7.63
2022-07-26T05:42:38.189Z,8.68
2022-07-26T05:45:05.854Z,7.90
2022-07-26T05:47:32.488Z,7.82
2022-07-26T05:49:59.184Z,7.55
2022-07-26T05:52:25.852Z,7.10
2022-07-26T05:54:52.344Z,9.88
2022-07-26T05:57:19.144Z,7.85
2022-07-26T05:59:45.586Z,8.55
2022-07-26T06:02:12.113Z,9.50
2022-07-26T06:04:38.706Z,9.32
2022-07-26T06:07:05.396Z,8.85
2022-07-26T06:09:31.901Z,10.63
2022-07-26T06:11:58.327Z,9.38
2022-07-26T06:14:39.836Z,9.10
2022-07-26T06:17:06.387Z,10.77
2022-07-26T06:19:33.285Z,10.70
2022-07-26T06:21:59.895Z,7.32
2022-07-26T06:24:26.988Z,7.85
2022-07-26T06:26:58.084Z,8.90
2022-07-26T06:29:32.364Z,10.55
2022-07-26T06:31:59.296Z,10.77
2022-07-26T06:34:25.785Z,8.57
2022-07-26T06:36:52.529Z,9.25
2022-07-26T06:39:19.000Z,7.68
2022-07-26T06:41:45.447Z,6.10
2022-07-26T06:44:12.076Z,6.15
2022-07-26T06:46:38.665Z,6.18
2022-07-26T06:49:05.581Z,5.57
2022-07-26T06:51:33.690Z,8.98
2022-07-26T06:54:04.545Z,7.00
2022-07-26T06:56:32.440Z,5.68
2022-07-26T06:58:58.869Z,4.60
2022-07-26T07:01:58.660Z,6.70
2022-07-26T07:04:12.116Z,4.45
2022-07-26T07:06:38.719Z,7.45
2022-07-26T07:09:08.259Z,6.30
2022-07-26T07:11:35.471Z,5.35
2022-07-26T07:14:03.222Z,5.88
2022-07-26T07:16:29.786Z,5.50
2022-07-26T07:18:56.258Z,4.88
2022-07-26T07:21:22.659Z,3.65
2022-07-26T07:23:49.055Z,4.32
2022-07-26T07:26:16.202Z,3.95
2022-07-26T07:28:42.633Z,6.15
2022-07-26T07:31:09.520Z,7.10
2022-07-26T07:33:36.562Z,6.45
2022-07-26T07:36:18.920Z,6.85
2022-07-26T07:38:45.816Z,3.53
2022-07-26T07:41:12.253Z,5.70
2022-07-26T07:43:38.681Z,4.93
2022-07-26T07:46:05.448Z,6.75
2022-07-26T07:48:32.118Z,6.03
2022-07-26T07:50:58.542Z,6.60
2022-07-26T07:53:25.453Z,4.88
2022-07-26T07:55:55.296Z,2.53
2022-07-26T07:58:22.013Z,3.78
2022-07-26T08:00:48.783Z,6.20
2022-07-26T08:03:18.647Z,4.00
2022-07-26T08:05:50.022Z,3.88
2022-07-26T08:08:18.845Z,6.40
2022-07-26T08:10:51.890Z,4.15
2022-07-26T08:13:21.355Z,5.05
2022-07-26T08:15:49.750Z,6.82
2022-07-26T08:18:16.350Z,5.82
2022-07-26T08:20:43.252Z,5.65
2022-07-26T08:23:10.181Z,4.63
2022-07-26T08:25:42.583Z,3.72
2022-07-26T08:28:30.790Z,4.78
2022-07-26T08:30:59.004Z,3.75
2022-07-26T08:33:25.545Z,8.48
2022-07-26T08:35:54.856Z,4.45
2022-07-26T08:38:24.943Z,5.47
2022-07-26T08:40:51.544Z,7.57
2022-07-26T08:43:18.520Z,11.48
2022-07-26T08:45:47.281Z,5.30
2022-07-26T08:48:18.419Z,6.25
2022-07-26T08:50:45.423Z,9.10
2022-07-26T08:53:13.144Z,5.15
2022-07-26T08:56:05.521Z,5.63
2022-07-26T08:58:26.552Z,4.18
2022-07-26T09:01:08.240Z,4.10
2022-07-26T09:03:38.358Z,6.97
2022-07-26T09:06:12.899Z,3.90
2022-07-26T09:08:39.524Z,3.53
2022-07-26T09:11:35.406Z,5.38
2022-07-26T09:14:04.912Z,3.55
2022-07-26T09:16:36.254Z,5.10
2022-07-26T09:19:21.402Z,8.07
2022-07-26T09:21:47.976Z,2.95
2022-07-26T09:24:29.927Z,5.15
2022-07-26T09:26:59.993Z,4.03
2022-07-26T09:29:28.531Z,4.88
2022-07-26T09:32:10.274Z,4.30
2022-07-26T09:34:36.737Z,4.03
2022-07-26T09:37:11.361Z,4.80
2022-07-26T09:39:55.170Z,3.45
2022-07-26T09:42:29.321Z,3.95
2022-07-26T09:44:57.515Z,3.72
2022-07-26T09:47:36.265Z,2.42
2022-07-26T09:50:14.762Z,5.47
2022-07-26T09:52:57.128Z,3.45
2022-07-26T09:55:23.611Z,3.70
2022-07-26T09:57:52.978Z,4.22
2022-07-26T10:00:20.001Z,2.78
2022-07-26T10:02:46.507Z,4.93
2022-07-26T10:05:13.055Z,3.72
2022-07-26T10:07:39.720Z,9.43
2022-07-26T10:10:14.982Z,5.38
2022-07-26T10:12:46.669Z,4.55
2022-07-26T10:15:38.235Z,1.70
2022-07-26T10:18:06.601Z,3.58
2022-07-26T10:20:45.651Z,2.90
2022-07-26T10:23:31.735Z,3.40
2022-07-26T10:26:00.440Z,2.42
2022-07-26T10:28:30.496Z,2.97
2022-07-26T10:31:26.538Z,2.05
2022-07-26T10:33:55.169Z,3.08
2022-07-26T10:36:24.312Z,4.60
2022-07-26T10:39:04.806Z,3.80
2022-07-26T10:41:37.708Z,2.80
2022-07-26T10:44:23.184Z,1.98
2022-07-26T10:47:07.604Z,2.15
2022-07-26T10:49:34.001Z,2.10
2022-07-26T10:52:27.981Z,4.30
2022-07-26T10:54:57.707Z,4.30
2022-07-26T10:57:27.349Z,2.63
2022-07-26T10:59:57.882Z,3.53
2022-07-26T11:02:32.290Z,2.60
2022-07-26T11:05:01.015Z,2.60
2022-07-26T11:07:28.558Z,4.85
2022-07-26T11:09:59.559Z,2.88
2022-07-26T11:12:26.786Z,1.80
2022-07-26T11:14:54.235Z,4.20
2022-07-26T11:17:29.164Z,2.22
2022-07-26T11:19:56.652Z,2.95
2022-07-26T11:22:34.381Z,2.20
2022-07-26T11:25:00.964Z,2.45
2022-07-26T11:27:27.496Z,3.45
2022-07-26T11:29:54.313Z,2.38
2022-07-26T11:32:25.087Z,3.42
2022-07-26T11:35:00.264Z,5.57
2022-07-26T11:37:26.952Z,3.92
2022-07-26T11:39:56.792Z,3.40
2022-07-26T11:42:23.249Z,3.13
2022-07-26T11:44:50.615Z,1.92
2022-07-26T11:47:25.447Z,3.15
2022-07-26T11:50:12.528Z,2.42
2022-07-26T11:52:38.705Z,3.92
2022-07-26T11:55:05.901Z,4.22
2022-07-26T11:57:32.809Z,2.88
2022-07-26T12:00:00.404Z,3.30
2022-07-26T12:02:28.611Z,3.50
2022-07-26T12:05:16.361Z,2.70
2022-07-26T12:08:00.094Z,2.65
2022-07-26T12:10:28.175Z,2.28
2022-07-26T12:13:11.628Z,3.03
2022-07-26T12:15:52.116Z,4.03
2022-07-26T12:18:23.656Z,3.28
2022-07-26T12:21:05.042Z,2.35
2022-07-26T12:23:49.876Z,1.88
2022-07-26T12:26:31.018Z,2.75
2022-07-26T12:28:59.678Z,4.43
2022-07-26T12:31:31.229Z,1.92
2022-07-26T12:33:58.604Z,4.85
2022-07-26T12:36:27.658Z,1.80
2022-07-26T12:38:56.210Z,3.85
2022-07-26T12:41:37.173Z,2.63
2022-07-26T12:44:05.610Z,3.00
2022-07-26T12:46:34.118Z,4.78
2022-07-26T12:49:01.184Z,2.17
2022-07-26T12:51:28.035Z,3.15
2022-07-26T12:53:54.731Z,2.90
2022-07-26T12:56:21.609Z,4.93
2022-07-26T12:58:48.019Z,3.40
2022-07-26T13:01:14.576Z,3.88
2022-07-26T13:03:41.055Z,2.13
2022-07-26T13:06:07.696Z,1.88
2022-07-26T13:08:34.150Z,2.42
2022-07-26T13:11:00.709Z,4.60
2022-07-26T13:13:27.149Z,2.75
2022-07-26T13:15:53.646Z,4.35
2022-07-26T13:18:20.099Z,2.70
2022-07-26T13:20:46.581Z,1.70
2022-07-26T13:23:15.759Z,2.83
2022-07-26T13:25:43.130Z,2.38
2022-07-26T13:28:09.707Z,2.67
2022-07-26T13:30:38.355Z,2.90
2022-07-26T13:33:05.160Z,2.25
2022-07-26T13:35:31.601Z,3.05
2022-07-26T13:37:58.035Z,2.45
2022-07-26T13:40:30.686Z,2.15
2022-07-26T13:42:58.035Z,1.65
2022-07-26T13:45:24.447Z,2.72
2022-07-26T13:47:56.026Z,2.15
2022-07-26T13:50:22.692Z,2.45
2022-07-26T13:52:49.221Z,3.65
2022-07-26T13:55:15.748Z,3.13
2022-07-26T13:57:53.129Z,1.30
2022-07-26T14:00:24.564Z,4.00
2022-07-26T14:02:51.118Z,1.65
2022-07-26T14:05:18.719Z,1.55
2022-07-26T14:07:45.231Z,2.72
2022-07-26T14:10:11.817Z,3.63
2022-07-26T14:12:38.588Z,3.72
2022-07-26T14:15:11.494Z,3.53
2022-07-26T14:17:39.753Z,4.65
2022-07-26T14:20:07.098Z,3.80
2022-07-26T14:22:33.584Z,3.75
2022-07-26T14:25:00.037Z,2.58
2022-07-26T14:27:26.507Z,3.08
2022-07-26T14:29:52.924Z,1.63
2022-07-26T14:32:22.258Z,3.15
2022-07-26T14:34:49.445Z,3.28
2022-07-26T14:37:44.546Z,1.25
2022-07-26T14:40:04.694Z,3.55
2022-07-26T14:42:31.193Z,3.00
2022-07-26T14:44:57.591Z,1.95
2022-07-26T14:47:24.069Z,4.13
2022-07-26T14:49:50.800Z,3.25
2022-07-26T14:52:17.432Z,5.28
2022-07-26T14:54:43.926Z,3.65
2022-07-26T14:57:10.438Z,5.22
2022-07-26T14:59:36.876Z,3.25
2022-07-26T15:02:05.878Z,3.78
2022-07-26T15:04:32.778Z,1.65
2022-07-26T15:06:59.787Z,1.77
2022-07-26T15:09:26.211Z,2.50
2022-07-26T15:11:53.043Z,3.65
2022-07-26T15:14:19.623Z,4.22
2022-07-26T15:16:46.252Z,2.03
2022-07-26T15:19:12.735Z,5.05
2022-07-26T15:21:39.188Z,2.65
2022-07-26T15:24:05.829Z,3.05
2022-07-26T15:26:32.243Z,2.33
2022-07-26T15:28:58.674Z,3.85
2022-07-26T15:31:37.154Z,1.92
2022-07-26T15:34:04.591Z,3.38
2022-07-26T15:36:31.426Z,2.72
2022-07-26T15:39:05.223Z,5.40
2022-07-26T15:41:42.395Z,1.45
2022-07-26T15:44:10.634Z,2.03
2022-07-26T15:46:38.975Z,3.25
2022-07-26T15:49:07.349Z,1.65
2022-07-26T15:51:34.165Z,1.52
2022-07-26T15:54:02.409Z,1.13
2022-07-26T15:56:28.958Z,2.25
2022-07-26T15:58:55.390Z,2.30
2022-07-26T16:01:21.962Z,2.80
2022-07-26T16:03:48.511Z,2.50
2022-07-26T16:06:15.034Z,2.08
2022-07-26T16:08:58.837Z,2.17
2022-07-26T16:11:29.698Z,4.28
2022-07-26T16:14:00.927Z,3.47
2022-07-26T16:16:29.673Z,3.80
2022-07-26T16:18:56.403Z,2.40
2022-07-26T16:21:22.987Z,3.25
2022-07-26T16:23:50.854Z,3.17
2022-07-26T16:26:17.777Z,2.60
2022-07-26T16:28:44.826Z,1.42
2022-07-26T16:31:11.385Z,1.35
2022-07-26T16:33:37.877Z,1.65
2022-07-26T16:36:12.746Z,2.13
2022-07-26T16:38:39.201Z,1.95
2022-07-26T16:41:05.664Z,2.97
2022-07-26T16:43:32.106Z,4.18
2022-07-26T16:45:58.558Z,2.83
2022-07-26T16:48:24.956Z,2.22
2022-07-26T16:50:51.382Z,1.30
2022-07-26T16:53:18.232Z,2.05
2022-07-26T16:55:45.327Z,2.00
2022-07-26T16:58:11.788Z,1.42
2022-07-26T17:00:38.312Z,1.77
2022-07-26T17:03:04.834Z,1.25
2022-07-26T17:05:31.349Z,3.28
2022-07-26T17:07:58.264Z,2.00
2022-07-26T17:10:25.484Z,3.85
2022-07-26T17:12:52.167Z,1.00
2022-07-26T17:15:18.759Z,1.10
2022-07-26T17:17:48.682Z,1.80
2022-07-26T17:20:17.048Z,1.65
2022-07-26T17:22:43.568Z,3.10
2022-07-26T17:25:10.843Z,3.38
2022-07-26T17:27:37.315Z,2.35
2022-07-26T17:30:07.088Z,3.05
2022-07-26T17:32:34.012Z,1.48
2022-07-26T17:35:00.625Z,2.05
2022-07-26T17:37:27.090Z,2.75
2022-07-26T17:39:55.300Z,1.00
2022-07-26T17:42:24.209Z,2.50
2022-07-26T17:44:51.192Z,2.40
2022-07-26T17:47:29.059Z,3.10
2022-07-26T17:50:08.981Z,1.50
2022-07-26T17:52:43.950Z,2.03
2022-07-26T17:55:10.422Z,1.10
2022-07-26T17:57:36.835Z,1.40
2022-07-26T18:00:06.746Z,2.67
2022-07-26T18:02:33.477Z,1.70
2022-07-26T18:04:59.973Z,1.83
2022-07-26T18:07:26.426Z,1.45
2022-07-26T18:09:52.851Z,1.42
2022-07-26T18:12:19.309Z,1.45
2022-07-26T18:14:45.731Z,1.35
2022-07-26T18:17:12.255Z,2.45
2022-07-26T18:19:38.767Z,2.60
2022-07-26T18:22:06.264Z,1.85
2022-07-26T18:24:33.063Z,1.50
2022-07-26T18:26:59.525Z,1.58
2022-07-26T18:29:25.983Z,1.88
2022-07-26T18:31:52.570Z,1.50
2022-07-26T18:34:19.080Z,4.28
2022-07-26T18:36:45.636Z,2.35
2022-07-26T18:39:12.763Z,3.40
2022-07-26T18:41:39.534Z,3.88
2022-07-26T18:44:06.007Z,4.28
2022-07-26T18:46:32.598Z,1.77
2022-07-26T18:49:00.258Z,2.97
2022-07-26T18:51:28.791Z,3.75
2022-07-26T18:53:55.232Z,3.95
2022-07-26T18:56:21.667Z,1.67
2022-07-26T18:58:48.126Z,3.00
2022-07-26T19:01:14.604Z,5.78
2022-07-26T19:03:41.088Z,2.78
2022-07-26T19:06:08.659Z,2.53
2022-07-26T19:08:35.068Z,1.92
2022-07-26T19:11:01.561Z,2.58
2022-07-26T19:13:27.964Z,4.35
2022-07-26T19:15:54.533Z,2.50
2022-07-26T19:18:20.967Z,2.35
2022-07-26T19:20:47.390Z,2.83
2022-07-26T19:23:13.869Z,2.38
2022-07-26T19:25:40.830Z,2.28
2022-07-26T19:28:07.541Z,3.10
2022-07-26T19:30:36.353Z,2.50
2022-07-26T19:33:02.926Z,3.17
2022-07-26T19:35:29.672Z,2.63
2022-07-26T19:37:56.230Z,1.52
2022-07-26T19:40:22.736Z,3.10
2022-07-26T19:42:49.209Z,1.85
2022-07-26T19:45:15.770Z,2.17
2022-07-26T19:47:42.721Z,3.50
2022-07-26T19:50:09.637Z,3.70
2022-07-26T19:52:36.088Z,3.05
2022-07-26T19:55:03.099Z,2.97
2022-07-26T19:57:29.578Z,2.80
2022-07-26T19:59:56.333Z,3.45
2022-07-26T20:02:23.080Z,4.53
2022-07-26T20:04:49.695Z,2.28
2022-07-26T20:07:19.464Z,3.28
2022-07-26T20:09:50.073Z,1.85
2022-07-26T20:12:18.253Z,1.95
2022-07-26T20:14:45.425Z,5.93
2022-07-26T20:17:13.217Z,3.88
2022-07-26T20:19:40.517Z,2.67
2022-07-26T20:22:07.069Z,2.65
2022-07-26T20:24:33.563Z,2.13
2022-07-26T20:27:00.026Z,2.17
2022-07-26T20:29:26.532Z,2.25
2022-07-26T20:31:52.961Z,4.68
2022-07-26T20:34:19.508Z,4.10
2022-07-26T20:36:46.579Z,3.17
2022-07-26T20:39:13.704Z,4.47
2022-07-26T20:41:40.585Z,3.17
2022-07-26T20:44:07.719Z,3.13
2022-07-26T20:46:39.669Z,2.45
2022-07-26T20:49:07.129Z,1.63
2022-07-26T20:51:33.899Z,3.70
2022-07-26T20:54:00.734Z,2.67
2022-07-26T20:56:27.745Z,2.05
2022-07-26T20:58:55.420Z,3.28
2022-07-26T21:01:21.888Z,2.40
2022-07-26T21:03:48.370Z,2.30
2022-07-26T21:06:14.835Z,2.05
2022-07-26T21:08:41.247Z,2.25
2022-07-26T21:11:07.679Z,3.72
2022-07-26T21:13:34.265Z,1.88
2022-07-26T21:16:00.810Z,1.40
2022-07-26T21:18:29.780Z,2.83
2022-07-26T21:20:56.963Z,2.70
2022-07-26T21:23:23.381Z,2.60
2022-07-26T21:25:49.903Z,3.53
2022-07-26T21:28:24.675Z,2.15
2022-07-26T21:30:51.200Z,2.70
2022-07-26T21:33:17.654Z,1.63
2022-07-26T21:35:44.503Z,4.75
2022-07-26T21:38:11.452Z,2.85
2022-07-26T21:40:38.184Z,2.80
2022-07-26T21:43:04.591Z,4.30
2022-07-26T21:45:31.065Z,3.30
2022-07-26T21:47:57.580Z,2.40
2022-07-26T21:50:24.163Z,4.40
2022-07-26T21:52:50.628Z,4.13
2022-07-26T21:55:18.067Z,2.83
2022-07-26T21:57:44.934Z,3.20
2022-07-26T22:00:14.345Z,3.38
2022-07-26T22:02:41.093Z,1.80
2022-07-26T22:05:26.783Z,3.25
2022-07-26T22:07:53.199Z,2.60
2022-07-26T22:10:19.696Z,3.70
2022-07-26T22:12:46.865Z,1.15
2022-07-26T22:15:13.811Z,5.28
2022-07-26T22:17:40.420Z,3.88
2022-07-26T22:20:08.908Z,3.72
2022-07-26T22:22:36.229Z,3.08
2022-07-26T22:25:02.897Z,2.75
2022-07-26T22:27:29.358Z,2.47
2022-07-26T22:29:55.810Z,3.85
2022-07-26T22:32:22.409Z,7.63
2022-07-26T22:34:48.847Z,2.78
2022-07-26T22:37:15.271Z,3.10
2022-07-26T22:39:41.697Z,5.60
2022-07-26T22:42:16.096Z,2.40
2022-07-26T22:44:43.045Z,4.20
2022-07-26T22:47:09.598Z,2.53
2022-07-26T22:49:36.151Z,3.38
2022-07-26T22:52:02.829Z,4.22
2022-07-26T22:54:29.364Z,2.63
2022-07-26T22:56:55.821Z,2.92
2022-07-26T22:59:22.784Z,2.97
2022-07-26T23:01:49.253Z,3.92
2022-07-26T23:04:15.799Z,3.47
2022-07-26T23:06:43.121Z,3.80
2022-07-26T23:09:11.681Z,2.92
2022-07-26T23:11:38.456Z,3.30
2022-07-26T23:14:04.954Z,3.88
2022-07-26T23:16:31.601Z,4.82
2022-07-26T23:18:58.216Z,3.05
2022-07-26T23:21:24.742Z,2.97
2022-07-26T23:23:51.153Z,4.93
2022-07-26T23:26:17.601Z,3.25
2022-07-26T23:28:44.027Z,3.03
2022-07-26T23:31:12.149Z,5.30
2022-07-26T23:33:51.927Z,5.95
2022-07-26T23:36:24.387Z,3.35
2022-07-26T23:38:50.983Z,3.30
2022-07-26T23:41:18.926Z,4.10
2022-07-26T23:43:45.468Z,4.47
2022-07-26T23:46:12.024Z,4.07
2022-07-26T23:51:25.619Z,2.50
2022-07-26T23:53:52.978Z,2.15
2022-07-26T23:56:19.588Z,2.28
2022-07-26T23:58:46.102Z,2.38
